sensor_id;sensor_type;location;lat;lon;timestamp;pressure;altitude;pressure_sealevel;temperature;humidity
56912;BME280;42800;53.928;27.662;2023-07-31T00:00:30;98587.50;;;16.20;100.00
56912;BME280;42800;53.928;27.662;2023-07-31T00:02:56;98583.97;;;16.19;100.00
56912;BME280;42800;53.928;27.662;2023-07-31T00:05:22;98588.34;;;16.17;100.00
56912;BME280;42800;53.928;27.662;2023-07-31T00:07:48;98587.69;;;16.06;100.00
56912;BME280;42800;53.928;27.662;2023-07-31T00:10:14;98581.31;;;16.09;100.00
56912;BME280;42800;53.928;27.662;2023-07-31T00:12:43;98572.19;;;16.12;100.00
56912;BME280;42800;53.928;27.662;2023-07-31T00:15:09;98575.34;;;16.14;100.00
56912;BME280;42800;53.928;27.662;2023-07-31T00:17:36;98577.03;;;16.04;100.00
56912;BME280;42800;53.928;27.662;2023-07-31T00:20:03;98579.75;;;16.08;100.00
56912;BME280;42800;53.928;27.662;2023-07-31T00:22:29;98579.81;;;16.04;100.00
56912;BME280;42800;53.928;27.662;2023-07-31T00:24:55;98579.53;;;15.95;100.00
56912;BME280;42800;53.928;27.662;2023-07-31T00:27:22;98563.59;;;16.06;100.00
56912;BME280;42800;53.928;27.662;2023-07-31T00:29:48;98564.28;;;16.14;100.00
56912;BME280;42800;53.928;27.662;2023-07-31T00:32:14;98573.28;;;16.18;100.00
56912;BME280;42800;53.928;27.662;2023-07-31T00:34:40;98579.94;;;16.24;100.00
56912;BME280;42800;53.928;27.662;2023-07-31T00:37:06;98584.31;;;16.21;100.00
56912;BME280;42800;53.928;27.662;2023-07-31T00:39:34;98590.22;;;16.23;100.00
56912;BME280;42800;53.928;27.662;2023-07-31T00:42:00;98593.03;;;16.20;100.00
56912;BME280;42800;53.928;27.662;2023-07-31T00:44:26;98588.19;;;16.28;100.00
56912;BME280;42800;53.928;27.662;2023-07-31T00:46:53;98596.03;;;16.29;100.00
56912;BME280;42800;53.928;27.662;2023-07-31T00:49:20;98591.72;;;16.28;100.00
56912;BME280;42800;53.928;27.662;2023-07-31T00:51:46;98589.00;;;16.24;100.00
56912;BME280;42800;53.928;27.662;2023-07-31T00:54:12;98597.44;;;16.14;100.00
56912;BME280;42800;53.928;27.662;2023-07-31T00:56:40;98593.09;;;16.16;100.00
56912;BME280;42800;53.928;27.662;2023-07-31T00:59:06;98596.44;;;16.00;100.00
56912;BME280;42800;53.928;27.662;2023-07-31T01:01:32;98598.84;;;15.98;100.00
56912;BME280;42800;53.928;27.662;2023-07-31T01:03:59;98596.84;;;15.99;100.00
56912;BME280;42800;53.928;27.662;2023-07-31T01:06:31;98592.63;;;15.91;100.00
56912;BME280;42800;53.928;27.662;2023-07-31T01:09:03;98585.50;;;15.93;100.00
56912;BME280;42800;53.928;27.662;2023-07-31T01:11:31;98587.22;;;15.80;100.00
56912;BME280;42800;53.928;27.662;2023-07-31T01:13:58;98578.56;;;15.78;100.00
56912;BME280;42800;53.928;27.662;2023-07-31T01:16:25;98574.75;;;15.65;100.00
56912;BME280;42800;53.928;27.662;2023-07-31T01:18:52;98566.44;;;15.68;100.00
56912;BME280;42800;53.928;27.662;2023-07-31T01:21:33;98561.28;;;15.70;100.00
56912;BME280;42800;53.928;27.662;2023-07-31T01:24:22;98577.16;;;15.59;100.00
56912;BME280;42800;53.928;27.662;2023-07-31T01:26:55;98578.75;;;15.60;100.00
56912;BME280;42800;53.928;27.662;2023-07-31T01:29:26;98576.09;;;15.53;100.00
56912;BME280;42800;53.928;27.662;2023-07-31T01:31:56;98576.81;;;15.57;100.00
56912;BME280;42800;53.928;27.662;2023-07-31T01:34:27;98578.81;;;15.57;100.00
56912;BME280;42800;53.928;27.662;2023-07-31T01:36:54;98567.38;;;15.54;100.00
56912;BME280;42800;53.928;27.662;2023-07-31T01:39:21;98577.69;;;15.50;100.00
56912;BME280;42800;53.928;27.662;2023-07-31T01:41:47;98560.72;;;15.48;100.00
56912;BME280;42800;53.928;27.662;2023-07-31T01:44:13;98565.34;;;15.59;100.00
56912;BME280;42800;53.928;27.662;2023-07-31T01:46:39;98572.50;;;15.52;100.00
56912;BME280;42800;53.928;27.662;2023-07-31T01:49:05;98581.59;;;15.53;100.00
56912;BME280;42800;53.928;27.662;2023-07-31T01:51:32;98590.28;;;15.51;100.00
56912;BME280;42800;53.928;27.662;2023-07-31T01:53:59;98578.84;;;15.53;100.00
56912;BME280;42800;53.928;27.662;2023-07-31T01:56:25;98578.75;;;15.60;100.00
56912;BME280;42800;53.928;27.662;2023-07-31T01:58:51;98576.72;;;15.64;100.00
56912;BME280;42800;53.928;27.662;2023-07-31T02:01:17;98586.28;;;15.60;100.00
56912;BME280;42800;53.928;27.662;2023-07-31T02:03:43;98594.22;;;15.54;100.00
56912;BME280;42800;53.928;27.662;2023-07-31T02:06:09;98599.28;;;15.59;100.00
56912;BME280;42800;53.928;27.662;2023-07-31T02:08:35;98598.56;;;15.51;100.00
56912;BME280;42800;53.928;27.662;2023-07-31T02:11:01;98593.00;;;15.55;100.00
56912;BME280;42800;53.928;27.662;2023-07-31T02:13:27;98606.81;;;15.55;100.00
56912;BME280;42800;53.928;27.662;2023-07-31T02:15:53;98598.53;;;15.55;100.00
56912;BME280;42800;53.928;27.662;2023-07-31T02:18:20;98602.88;;;15.56;100.00
56912;BME280;42800;53.928;27.662;2023-07-31T02:20:49;98608.19;;;15.40;100.00
56912;BME280;42800;53.928;27.662;2023-07-31T02:23:15;98596.28;;;15.46;100.00
56912;BME280;42800;53.928;27.662;2023-07-31T02:25:41;98604.97;;;15.45;100.00
56912;BME280;42800;53.928;27.662;2023-07-31T02:28:07;98615.66;;;15.39;100.00
56912;BME280;42800;53.928;27.662;2023-07-31T02:30:35;98607.00;;;15.41;100.00
56912;BME280;42800;53.928;27.662;2023-07-31T02:33:01;98609.75;;;15.41;100.00
56912;BME280;42800;53.928;27.662;2023-07-31T02:35:28;98619.19;;;15.43;100.00
56912;BME280;42800;53.928;27.662;2023-07-31T02:37:54;98627.97;;;15.35;100.00
56912;BME280;42800;53.928;27.662;2023-07-31T02:40:20;98610.16;;;15.39;100.00
56912;BME280;42800;53.928;27.662;2023-07-31T02:42:46;98614.38;;;15.51;100.00
56912;BME280;42800;53.928;27.662;2023-07-31T02:45:12;98619.78;;;15.62;100.00
56912;BME280;42800;53.928;27.662;2023-07-31T02:47:38;98632.31;;;15.73;100.00
56912;BME280;42800;53.928;27.662;2023-07-31T02:50:05;98636.50;;;15.85;100.00
56912;BME280;42800;53.928;27.662;2023-07-31T02:52:31;98645.47;;;15.96;100.00
56912;BME280;42800;53.928;27.662;2023-07-31T02:54:58;98665.91;;;16.06;100.00
56912;BME280;42800;53.928;27.662;2023-07-31T02:57:24;98668.72;;;16.33;100.00
56912;BME280;42800;53.928;27.662;2023-07-31T02:59:50;98690.09;;;16.60;100.00
56912;BME280;42800;53.928;27.662;2023-07-31T03:02:16;98716.13;;;16.93;100.00
56912;BME280;42800;53.928;27.662;2023-07-31T03:04:42;98766.91;;;17.10;100.00
56912;BME280;42800;53.928;27.662;2023-07-31T03:07:08;98804.97;;;17.29;100.00
56912;BME280;42800;53.928;27.662;2023-07-31T03:09:34;98821.56;;;17.60;100.00
56912;BME280;42800;53.928;27.662;2023-07-31T03:12:00;98848.84;;;17.61;100.00
56912;BME280;42800;53.928;27.662;2023-07-31T03:14:26;98862.25;;;17.67;100.00
56912;BME280;42800;53.928;27.662;2023-07-31T03:16:52;98868.97;;;17.65;100.00
56912;BME280;42800;53.928;27.662;2023-07-31T03:19:18;98870.97;;;17.65;100.00
56912;BME280;42800;53.928;27.662;2023-07-31T03:21:44;98873.69;;;17.69;100.00
56912;BME280;42800;53.928;27.662;2023-07-31T03:24:10;98875.53;;;17.79;100.00
56912;BME280;42800;53.928;27.662;2023-07-31T03:26:38;98877.72;;;17.91;100.00
56912;BME280;42800;53.928;27.662;2023-07-31T03:29:06;98875.00;;;18.11;100.00
56912;BME280;42800;53.928;27.662;2023-07-31T03:31:32;98871.97;;;18.02;100.00
56912;BME280;42800;53.928;27.662;2023-07-31T03:33:58;98876.09;;;17.94;100.00
56912;BME280;42800;53.928;27.662;2023-07-31T03:36:24;98878.16;;;18.13;100.00
56912;BME280;42800;53.928;27.662;2023-07-31T03:38:51;98867.13;;;18.09;100.00
56912;BME280;42800;53.928;27.662;2023-07-31T03:41:17;98872.53;;;17.93;100.00
56912;BME280;42800;53.928;27.662;2023-07-31T03:43:45;98870.03;;;18.22;100.00
56912;BME280;42800;53.928;27.662;2023-07-31T03:46:11;98866.25;;;18.36;100.00
56912;BME280;42800;53.928;27.662;2023-07-31T03:48:38;98869.06;;;18.32;100.00
56912;BME280;42800;53.928;27.662;2023-07-31T03:51:04;98847.13;;;18.81;100.00
56912;BME280;42800;53.928;27.662;2023-07-31T03:53:30;98815.97;;;19.10;100.00
56912;BME280;42800;53.928;27.662;2023-07-31T03:55:55;98763.31;;;19.39;100.00
56912;BME280;42800;53.928;27.662;2023-07-31T03:58:22;98716.66;;;19.47;100.00
56912;BME280;42800;53.928;27.662;2023-07-31T04:00:48;98667.25;;;19.84;100.00
56912;BME280;42800;53.928;27.662;2023-07-31T04:03:14;98566.91;;;20.04;100.00
56912;BME280;42800;53.928;27.662;2023-07-31T04:05:40;98508.38;;;20.20;100.00
56912;BME280;42800;53.928;27.662;2023-07-31T04:08:06;98409.47;;;20.41;100.00
56912;BME280;42800;53.928;27.662;2023-07-31T04:10:32;98388.38;;;20.18;100.00
56912;BME280;42800;53.928;27.662;2023-07-31T04:12:58;98362.59;;;20.74;100.00
56912;BME280;42800;53.928;27.662;2023-07-31T04:15:24;98248.09;;;21.03;100.00
56912;BME280;42800;53.928;27.662;2023-07-31T04:17:51;98073.50;;;21.55;100.00
56912;BME280;42800;53.928;27.662;2023-07-31T04:20:17;97871.53;;;21.90;100.00
56912;BME280;42800;53.928;27.662;2023-07-31T04:22:43;97770.59;;;22.39;100.00
56912;BME280;42800;53.928;27.662;2023-07-31T04:25:09;97663.72;;;22.53;100.00
56912;BME280;42800;53.928;27.662;2023-07-31T04:27:35;97608.28;;;22.82;100.00
56912;BME280;42800;53.928;27.662;2023-07-31T04:30:00;97560.28;;;22.98;100.00
56912;BME280;42800;53.928;27.662;2023-07-31T04:32:26;97566.28;;;23.11;100.00
56912;BME280;42800;53.928;27.662;2023-07-31T04:34:53;97487.78;;;23.35;100.00
56912;BME280;42800;53.928;27.662;2023-07-31T04:37:19;97482.59;;;23.75;100.00
56912;BME280;42800;53.928;27.662;2023-07-31T04:39:45;97457.53;;;23.86;100.00
56912;BME280;42800;53.928;27.662;2023-07-31T04:42:11;97431.66;;;23.97;100.00
56912;BME280;42800;53.928;27.662;2023-07-31T04:44:37;97409.44;;;24.25;100.00
56912;BME280;42800;53.928;27.662;2023-07-31T04:47:03;97397.22;;;24.22;100.00
56912;BME280;42800;53.928;27.662;2023-07-31T04:49:29;97403.66;;;24.34;100.00
56912;BME280;42800;53.928;27.662;2023-07-31T04:51:55;97392.69;;;24.30;100.00
56912;BME280;42800;53.928;27.662;2023-07-31T04:54:21;97413.03;;;23.88;100.00
56912;BME280;42800;53.928;27.662;2023-07-31T04:56:47;97426.59;;;23.69;100.00
56912;BME280;42800;53.928;27.662;2023-07-31T04:59:13;97410.84;;;24.03;100.00
56912;BME280;42800;53.928;27.662;2023-07-31T05:01:39;97385.94;;;24.54;100.00
56912;BME280;42800;53.928;27.662;2023-07-31T05:04:05;97388.13;;;24.33;100.00
56912;BME280;42800;53.928;27.662;2023-07-31T05:06:31;97403.94;;;23.67;100.00
56912;BME280;42800;53.928;27.662;2023-07-31T05:08:57;97450.59;;;23.55;100.00
56912;BME280;42800;53.928;27.662;2023-07-31T05:11:24;97518.91;;;23.22;100.00
56912;BME280;42800;53.928;27.662;2023-07-31T05:13:49;97596.22;;;22.90;100.00
56912;BME280;42800;53.928;27.662;2023-07-31T05:16:15;97717.53;;;22.39;100.00
56912;BME280;42800;53.928;27.662;2023-07-31T05:18:41;97769.44;;;22.61;100.00
56912;BME280;42800;53.928;27.662;2023-07-31T05:21:07;97678.50;;;23.04;100.00
56912;BME280;42800;53.928;27.662;2023-07-31T05:23:33;97659.59;;;23.14;100.00
56912;BME280;42800;53.928;27.662;2023-07-31T05:26:03;97572.47;;;23.62;100.00
56912;BME280;42800;53.928;27.662;2023-07-31T05:28:30;97486.78;;;24.16;100.00
56912;BME280;42800;53.928;27.662;2023-07-31T05:30:59;97418.88;;;24.27;100.00
56912;BME280;42800;53.928;27.662;2023-07-31T05:33:25;97413.31;;;24.33;100.00
56912;BME280;42800;53.928;27.662;2023-07-31T05:35:50;97389.31;;;24.63;100.00
56912;BME280;42800;53.928;27.662;2023-07-31T05:38:16;97400.50;;;25.51;100.00
56912;BME280;42800;53.928;27.662;2023-07-31T05:40:42;97444.31;;;25.26;100.00
56912;BME280;42800;53.928;27.662;2023-07-31T05:43:09;97408.78;;;25.01;100.00
56912;BME280;42800;53.928;27.662;2023-07-31T05:45:35;97408.53;;;25.04;100.00
56912;BME280;42800;53.928;27.662;2023-07-31T05:48:02;97489.00;;;25.47;100.00
56912;BME280;42800;53.928;27.662;2023-07-31T05:50:28;97585.34;;;26.43;100.00
56912;BME280;42800;53.928;27.662;2023-07-31T05:52:54;97685.50;;;27.02;100.00
56912;BME280;42800;53.928;27.662;2023-07-31T05:55:20;97735.38;;;26.79;100.00
56912;BME280;42800;53.928;27.662;2023-07-31T05:57:46;97690.78;;;26.21;100.00
56912;BME280;42800;53.928;27.662;2023-07-31T06:00:13;97689.09;;;26.63;100.00
56912;BME280;42800;53.928;27.662;2023-07-31T06:02:40;97705.72;;;26.78;100.00
56912;BME280;42800;53.928;27.662;2023-07-31T06:05:07;97739.97;;;27.21;100.00
56912;BME280;42800;53.928;27.662;2023-07-31T06:07:33;97732.03;;;26.97;100.00
56912;BME280;42800;53.928;27.662;2023-07-31T06:09:59;97667.38;;;26.81;100.00
56912;BME280;42800;53.928;27.662;2023-07-31T06:12:30;97690.13;;;26.71;100.00
56912;BME280;42800;53.928;27.662;2023-07-31T06:14:56;97792.44;;;27.36;100.00
56912;BME280;42800;53.928;27.662;2023-07-31T06:17:22;97795.44;;;26.98;100.00
56912;BME280;42800;53.928;27.662;2023-07-31T06:19:49;97839.75;;;27.26;100.00
56912;BME280;42800;53.928;27.662;2023-07-31T06:22:15;97820.75;;;26.98;100.00
56912;BME280;42800;53.928;27.662;2023-07-31T06:24:41;97757.34;;;26.86;100.00
56912;BME280;42800;53.928;27.662;2023-07-31T06:27:07;97799.34;;;26.36;100.00
56912;BME280;42800;53.928;27.662;2023-07-31T06:29:33;97779.31;;;26.71;100.00
56912;BME280;42800;53.928;27.662;2023-07-31T06:31:59;97761.06;;;26.33;100.00
56912;BME280;42800;53.928;27.662;2023-07-31T06:34:25;97804.44;;;27.19;100.00
56912;BME280;42800;53.928;27.662;2023-07-31T06:36:51;97881.69;;;27.52;100.00
56912;BME280;42800;53.928;27.662;2023-07-31T06:39:17;98003.81;;;27.77;100.00
56912;BME280;42800;53.928;27.662;2023-07-31T06:41:44;98034.81;;;28.05;100.00
56912;BME280;42800;53.928;27.662;2023-07-31T06:44:10;98084.50;;;28.08;100.00
56912;BME280;42800;53.928;27.662;2023-07-31T06:46:36;98105.75;;;29.05;100.00
56912;BME280;42800;53.928;27.662;2023-07-31T06:49:02;98097.78;;;27.85;100.00
56912;BME280;42800;53.928;27.662;2023-07-31T06:51:29;98096.28;;;28.07;100.00
56912;BME280;42800;53.928;27.662;2023-07-31T06:53:56;98068.91;;;28.13;100.00
56912;BME280;42800;53.928;27.662;2023-07-31T06:56:22;98047.88;;;28.65;100.00
56912;BME280;42800;53.928;27.662;2023-07-31T06:58:48;98033.03;;;28.08;100.00
56912;BME280;42800;53.928;27.662;2023-07-31T07:01:14;98011.25;;;28.36;100.00
56912;BME280;42800;53.928;27.662;2023-07-31T07:03:40;98034.22;;;29.02;100.00
56912;BME280;42800;53.928;27.662;2023-07-31T07:06:06;98040.97;;;29.41;100.00
56912;BME280;42800;53.928;27.662;2023-07-31T07:08:33;97983.94;;;29.01;100.00
56912;BME280;42800;53.928;27.662;2023-07-31T07:10:59;97998.41;;;28.69;100.00
56912;BME280;42800;53.928;27.662;2023-07-31T07:13:25;97967.47;;;28.02;100.00
56912;BME280;42800;53.928;27.662;2023-07-31T07:15:51;98017.38;;;28.63;100.00
56912;BME280;42800;53.928;27.662;2023-07-31T07:18:17;98088.56;;;28.92;100.00
56912;BME280;42800;53.928;27.662;2023-07-31T07:20:46;98078.63;;;28.29;100.00
56912;BME280;42800;53.928;27.662;2023-07-31T07:23:13;98036.75;;;27.49;100.00
56912;BME280;42800;53.928;27.662;2023-07-31T07:25:39;98018.31;;;27.36;100.00
56912;BME280;42800;53.928;27.662;2023-07-31T07:28:05;98053.53;;;28.36;100.00
56912;BME280;42800;53.928;27.662;2023-07-31T07:30:31;98093.63;;;29.27;100.00
56912;BME280;42800;53.928;27.662;2023-07-31T07:32:57;98106.97;;;29.90;100.00
56912;BME280;42800;53.928;27.662;2023-07-31T07:35:23;98152.13;;;30.43;100.00
56912;BME280;42800;53.928;27.662;2023-07-31T07:37:49;98206.56;;;30.49;98.42
56912;BME280;42800;53.928;27.662;2023-07-31T07:40:15;98168.88;;;31.01;100.00
56912;BME280;42800;53.928;27.662;2023-07-31T07:42:42;98205.56;;;31.43;91.72
56912;BME280;42800;53.928;27.662;2023-07-31T07:45:09;98213.13;;;31.78;87.56
56912;BME280;42800;53.928;27.662;2023-07-31T07:47:35;98197.50;;;30.92;97.08
56912;BME280;42800;53.928;27.662;2023-07-31T07:50:01;98184.59;;;30.31;100.00
56912;BME280;42800;53.928;27.662;2023-07-31T07:52:27;98181.16;;;30.43;100.00
56912;BME280;42800;53.928;27.662;2023-07-31T07:54:53;98168.13;;;29.82;100.00
56912;BME280;42800;53.928;27.662;2023-07-31T07:57:19;98147.47;;;29.46;100.00
56912;BME280;42800;53.928;27.662;2023-07-31T07:59:46;98118.22;;;29.43;100.00
56912;BME280;42800;53.928;27.662;2023-07-31T08:02:12;98105.63;;;29.44;100.00
56912;BME280;42800;53.928;27.662;2023-07-31T08:04:37;98117.59;;;30.14;100.00
56912;BME280;42800;53.928;27.662;2023-07-31T08:07:03;98137.66;;;29.64;100.00
56912;BME280;42800;53.928;27.662;2023-07-31T08:09:29;98158.75;;;30.10;100.00
56912;BME280;42800;53.928;27.662;2023-07-31T08:11:55;98167.63;;;30.66;100.00
56912;BME280;42800;53.928;27.662;2023-07-31T08:14:27;98206.41;;;31.02;91.59
56912;BME280;42800;53.928;27.662;2023-07-31T08:16:53;98200.16;;;31.63;95.65
56912;BME280;42800;53.928;27.662;2023-07-31T08:19:19;98214.03;;;31.67;86.24
56912;BME280;42800;53.928;27.662;2023-07-31T08:21:45;98208.50;;;31.56;95.45
56912;BME280;42800;53.928;27.662;2023-07-31T08:24:11;98189.22;;;31.24;100.00
56912;BME280;42800;53.928;27.662;2023-07-31T08:26:37;98199.19;;;31.36;100.00
56912;BME280;42800;53.928;27.662;2023-07-31T08:29:03;98201.44;;;31.13;100.00
56912;BME280;42800;53.928;27.662;2023-07-31T08:31:29;98199.63;;;31.16;100.00
56912;BME280;42800;53.928;27.662;2023-07-31T08:33:55;98206.56;;;31.15;96.00
56912;BME280;42800;53.928;27.662;2023-07-31T08:36:21;98234.69;;;31.32;81.18
56912;BME280;42800;53.928;27.662;2023-07-31T08:38:47;98221.06;;;31.60;81.37
56912;BME280;42800;53.928;27.662;2023-07-31T08:41:15;98223.19;;;30.22;87.06
56912;BME280;42800;53.928;27.662;2023-07-31T08:43:44;98209.09;;;31.18;91.30
56912;BME280;42800;53.928;27.662;2023-07-31T08:46:11;98221.00;;;31.11;86.04
56912;BME280;42800;53.928;27.662;2023-07-31T08:48:37;98214.28;;;30.48;88.68
56912;BME280;42800;53.928;27.662;2023-07-31T08:51:04;98217.09;;;30.48;89.26
56912;BME280;42800;53.928;27.662;2023-07-31T08:53:30;98220.63;;;31.26;77.46
56912;BME280;42800;53.928;27.662;2023-07-31T08:55:58;98215.41;;;31.36;77.71
56912;BME280;42800;53.928;27.662;2023-07-31T08:58:25;98213.53;;;31.87;79.81
56912;BME280;42800;53.928;27.662;2023-07-31T09:00:53;98216.59;;;31.16;77.87
56912;BME280;42800;53.928;27.662;2023-07-31T09:03:23;98203.91;;;32.53;82.57
56912;BME280;42800;53.928;27.662;2023-07-31T09:05:50;98205.16;;;32.71;79.52
56912;BME280;42800;53.928;27.662;2023-07-31T09:08:18;98208.03;;;32.52;78.98
56912;BME280;42800;53.928;27.662;2023-07-31T09:10:45;98211.00;;;32.92;79.31
56912;BME280;42800;53.928;27.662;2023-07-31T09:13:12;98207.59;;;33.25;80.13
56912;BME280;42800;53.928;27.662;2023-07-31T09:15:38;98213.69;;;33.03;79.27
56912;BME280;42800;53.928;27.662;2023-07-31T09:18:06;98201.44;;;33.54;74.92
56912;BME280;42800;53.928;27.662;2023-07-31T09:20:32;98196.22;;;32.48;77.42
56912;BME280;42800;53.928;27.662;2023-07-31T09:23:06;98192.50;;;30.74;81.51
56912;BME280;42800;53.928;27.662;2023-07-31T09:25:33;98192.66;;;31.17;78.36
56912;BME280;42800;53.928;27.662;2023-07-31T09:28:01;98194.22;;;32.62;75.26
56912;BME280;42800;53.928;27.662;2023-07-31T09:30:27;98183.41;;;32.41;76.00
56912;BME280;42800;53.928;27.662;2023-07-31T09:33:00;98181.63;;;32.06;75.42
56912;BME280;42800;53.928;27.662;2023-07-31T09:35:28;98183.09;;;31.45;77.46
56912;BME280;42800;53.928;27.662;2023-07-31T09:37:56;98177.31;;;31.99;78.53
56912;BME280;42800;53.928;27.662;2023-07-31T09:40:27;98170.81;;;31.61;82.50
56912;BME280;42800;53.928;27.662;2023-07-31T09:42:56;98185.81;;;32.37;75.83
56912;BME280;42800;53.928;27.662;2023-07-31T09:45:23;98173.72;;;31.31;80.29
56912;BME280;42800;53.928;27.662;2023-07-31T09:47:49;98172.03;;;31.90;86.64
56912;BME280;42800;53.928;27.662;2023-07-31T09:50:15;98183.00;;;31.75;79.02
56912;BME280;42800;53.928;27.662;2023-07-31T09:52:41;98192.41;;;32.26;77.34
56912;BME280;42800;53.928;27.662;2023-07-31T09:55:07;98197.56;;;31.84;74.39
56912;BME280;42800;53.928;27.662;2023-07-31T09:57:34;98191.81;;;31.96;77.48
56912;BME280;42800;53.928;27.662;2023-07-31T10:00:00;98191.44;;;31.37;80.00
56912;BME280;42800;53.928;27.662;2023-07-31T10:02:27;98189.34;;;31.13;87.29
56912;BME280;42800;53.928;27.662;2023-07-31T10:04:56;98171.97;;;30.32;94.81
56912;BME280;42800;53.928;27.662;2023-07-31T10:07:25;98181.16;;;30.43;92.34
56912;BME280;42800;53.928;27.662;2023-07-31T10:09:54;98171.34;;;30.86;91.91
56912;BME280;42800;53.928;27.662;2023-07-31T10:12:25;98171.91;;;30.43;90.76
56912;BME280;42800;53.928;27.662;2023-07-31T10:14:52;98172.00;;;31.22;88.23
56912;BME280;42800;53.928;27.662;2023-07-31T10:17:21;98183.84;;;31.21;80.17
56912;BME280;42800;53.928;27.662;2023-07-31T10:19:47;98170.88;;;32.18;84.21
56912;BME280;42800;53.928;27.662;2023-07-31T10:22:14;98173.16;;;31.38;75.27
56912;BME280;42800;53.928;27.662;2023-07-31T10:24:41;98179.09;;;31.78;74.76
56912;BME280;42800;53.928;27.662;2023-07-31T10:27:08;98173.50;;;31.72;77.99
56912;BME280;42800;53.928;27.662;2023-07-31T10:29:35;98177.81;;;32.35;75.02
56912;BME280;42800;53.928;27.662;2023-07-31T10:32:03;98174.84;;;32.92;72.04
56912;BME280;42800;53.928;27.662;2023-07-31T10:34:33;98168.63;;;32.80;71.51
56912;BME280;42800;53.928;27.662;2023-07-31T10:37:21;98170.41;;;32.14;69.59
56912;BME280;42800;53.928;27.662;2023-07-31T10:39:58;98164.38;;;32.04;73.95
56912;BME280;42800;53.928;27.662;2023-07-31T10:42:29;98171.47;;;31.92;72.96
56912;BME280;42800;53.928;27.662;2023-07-31T10:44:57;98164.44;;;31.36;73.79
56912;BME280;42800;53.928;27.662;2023-07-31T10:47:24;98162.56;;;31.14;74.61
56912;BME280;42800;53.928;27.662;2023-07-31T10:49:50;98159.63;;;29.88;78.86
56912;BME280;42800;53.928;27.662;2023-07-31T10:52:19;98152.31;;;31.11;83.59
56912;BME280;42800;53.928;27.662;2023-07-31T10:54:48;98159.63;;;31.93;80.29
56912;BME280;42800;53.928;27.662;2023-07-31T10:57:20;98157.56;;;32.13;72.30
56912;BME280;42800;53.928;27.662;2023-07-31T10:59:47;98156.03;;;31.00;74.60
56912;BME280;42800;53.928;27.662;2023-07-31T11:02:24;98150.84;;;29.22;79.73
56912;BME280;42800;53.928;27.662;2023-07-31T11:05:06;98150.78;;;30.08;77.52
56912;BME280;42800;53.928;27.662;2023-07-31T11:07:46;98137.50;;;30.99;77.07
56912;BME280;42800;53.928;27.662;2023-07-31T11:10:16;98143.63;;;30.01;80.07
56912;BME280;42800;53.928;27.662;2023-07-31T11:12:42;98138.19;;;30.45;79.93
56912;BME280;42800;53.928;27.662;2023-07-31T11:15:09;98129.22;;;30.46;81.92
56912;BME280;42800;53.928;27.662;2023-07-31T11:17:38;98125.63;;;30.05;78.35
56912;BME280;42800;53.928;27.662;2023-07-31T11:20:06;98125.75;;;29.82;82.42
56912;BME280;42800;53.928;27.662;2023-07-31T11:22:32;98124.63;;;29.38;85.13
56912;BME280;42800;53.928;27.662;2023-07-31T11:24:59;98109.34;;;29.05;94.48
56912;BME280;42800;53.928;27.662;2023-07-31T11:27:27;98104.72;;;28.91;93.75
56912;BME280;42800;53.928;27.662;2023-07-31T11:29:53;98102.97;;;28.71;95.50
56912;BME280;42800;53.928;27.662;2023-07-31T11:32:19;98091.19;;;28.67;100.00
56912;BME280;42800;53.928;27.662;2023-07-31T11:34:51;98094.75;;;28.11;95.17
56912;BME280;42800;53.928;27.662;2023-07-31T11:37:18;98094.47;;;28.88;96.57
56912;BME280;42800;53.928;27.662;2023-07-31T11:39:58;98100.38;;;28.90;94.67
56912;BME280;42800;53.928;27.662;2023-07-31T11:42:24;98106.84;;;28.63;92.67
56912;BME280;42800;53.928;27.662;2023-07-31T11:44:50;98111.44;;;28.66;93.44
56912;BME280;42800;53.928;27.662;2023-07-31T11:47:16;98122.22;;;28.73;89.68
56912;BME280;42800;53.928;27.662;2023-07-31T11:49:43;98109.91;;;28.65;98.59
56912;BME280;42800;53.928;27.662;2023-07-31T11:52:10;98115.53;;;28.31;92.08
56912;BME280;42800;53.928;27.662;2023-07-31T11:54:38;98112.44;;;28.34;96.22
56912;BME280;42800;53.928;27.662;2023-07-31T11:57:05;98112.19;;;28.27;95.20
56912;BME280;42800;53.928;27.662;2023-07-31T11:59:31;98114.50;;;28.79;94.97
56912;BME280;42800;53.928;27.662;2023-07-31T12:01:57;98105.31;;;28.50;97.96
56912;BME280;42800;53.928;27.662;2023-07-31T12:04:24;98098.59;;;28.08;100.00
56912;BME280;42800;53.928;27.662;2023-07-31T12:06:52;98093.00;;;28.48;100.00
56912;BME280;42800;53.928;27.662;2023-07-31T12:09:18;98091.44;;;28.58;100.00
56912;BME280;42800;53.928;27.662;2023-07-31T12:11:46;98118.09;;;28.51;86.26
56912;BME280;42800;53.928;27.662;2023-07-31T12:14:20;98113.47;;;28.37;85.09
56912;BME280;42800;53.928;27.662;2023-07-31T12:16:46;98096.06;;;28.33;95.73
56912;BME280;42800;53.928;27.662;2023-07-31T12:19:12;98097.25;;;27.81;95.01
56912;BME280;42800;53.928;27.662;2023-07-31T12:21:38;98086.03;;;27.92;95.90
56912;BME280;42800;53.928;27.662;2023-07-31T12:24:04;98087.22;;;27.09;99.86
56912;BME280;42800;53.928;27.662;2023-07-31T12:26:34;98097.00;;;27.14;95.12
56912;BME280;42800;53.928;27.662;2023-07-31T12:29:01;98083.75;;;28.13;93.94
56912;BME280;42800;53.928;27.662;2023-07-31T12:31:28;98070.69;;;28.27;99.31
56912;BME280;42800;53.928;27.662;2023-07-31T12:33:55;98068.78;;;27.57;100.00
56912;BME280;42800;53.928;27.662;2023-07-31T12:36:22;98077.19;;;27.51;100.00
56912;BME280;42800;53.928;27.662;2023-07-31T12:38:50;98074.34;;;27.45;100.00
56912;BME280;42800;53.928;27.662;2023-07-31T12:41:16;98085.28;;;27.27;100.00